sensor_id;sensor_type;location;lat;lon;timestamp;temperature;humidity
31129;DHT22;17777;48.770;8.944;2022-08-11T00:03:05;24.20;30.70
31129;DHT22;17777;48.770;8.944;2022-08-11T00:05:42;24.10;30.90
31129;DHT22;17777;48.770;8.944;2022-08-11T00:08:11;24.10;30.60
31129;DHT22;17777;48.770;8.944;2022-08-11T00:10:54;24.00;30.60
31129;DHT22;17777;48.770;8.944;2022-08-11T00:13:35;24.00;31.30
31129;DHT22;17777;48.770;8.944;2022-08-11T00:16:20;23.90;31.90
31129;DHT22;17777;48.770;8.944;2022-08-11T00:18:52;23.90;32.10
31129;DHT22;17777;48.770;8.944;2022-08-11T00:21:21;23.90;31.50
31129;DHT22;17777;48.770;8.944;2022-08-11T00:24:00;23.80;31.20
31129;DHT22;17777;48.770;8.944;2022-08-11T00:26:27;23.70;31.30
31129;DHT22;17777;48.770;8.944;2022-08-11T00:28:54;23.70;31.20
31129;DHT22;17777;48.770;8.944;2022-08-11T00:31:25;23.70;32.00
31129;DHT22;17777;48.770;8.944;2022-08-11T00:33:58;23.60;31.80
31129;DHT22;17777;48.770;8.944;2022-08-11T00:37:09;23.50;31.50
31129;DHT22;17777;48.770;8.944;2022-08-11T00:39:42;23.50;32.90
31129;DHT22;17777;48.770;8.944;2022-08-11T00:45:28;23.40;33.20
31129;DHT22;17777;48.770;8.944;2022-08-11T00:48:14;23.40;32.20
31129;DHT22;17777;48.770;8.944;2022-08-11T01:01:06;23.20;33.00
31129;DHT22;17777;48.770;8.944;2022-08-11T01:09:53;23.00;34.10
31129;DHT22;17777;48.770;8.944;2022-08-11T01:12:52;22.90;33.20
31129;DHT22;17777;48.770;8.944;2022-08-11T01:27:41;22.70;33.60
31129;DHT22;17777;48.770;8.944;2022-08-11T01:40:30;22.50;34.80
31129;DHT22;17777;48.770;8.944;2022-08-11T01:47:12;22.40;34.40
31129;DHT22;17777;48.770;8.944;2022-08-11T01:53:42;22.30;34.40
31129;DHT22;17777;48.770;8.944;2022-08-11T01:56:32;22.30;34.20
31129;DHT22;17777;48.770;8.944;2022-08-11T01:59:17;22.20;34.10
31129;DHT22;17777;48.770;8.944;2022-08-11T02:11:25;22.00;34.70
31129;DHT22;17777;48.770;8.944;2022-08-11T02:14:23;22.00;35.10
31129;DHT22;17777;48.770;8.944;2022-08-11T02:17:14;21.90;35.30
31129;DHT22;17777;48.770;8.944;2022-08-11T02:19:59;21.90;35.30
31129;DHT22;17777;48.770;8.944;2022-08-11T02:23:26;21.80;35.50
31129;DHT22;17777;48.770;8.944;2022-08-11T02:26:07;21.80;35.90
31129;DHT22;17777;48.770;8.944;2022-08-11T02:29:15;21.80;34.80
31129;DHT22;17777;48.770;8.944;2022-08-11T02:32:06;21.70;36.20
31129;DHT22;17777;48.770;8.944;2022-08-11T02:35:28;21.70;36.10
31129;DHT22;17777;48.770;8.944;2022-08-11T02:38:24;21.60;35.50
31129;DHT22;17777;48.770;8.944;2022-08-11T02:41:12;21.60;36.50
31129;DHT22;17777;48.770;8.944;2022-08-11T02:50:10;21.50;35.40
31129;DHT22;17777;48.770;8.944;2022-08-11T02:53:00;21.40;36.40
31129;DHT22;17777;48.770;8.944;2022-08-11T02:55:57;21.40;36.00
31129;DHT22;17777;48.770;8.944;2022-08-11T02:58:58;21.40;36.60
31129;DHT22;17777;48.770;8.944;2022-08-11T03:01:57;21.40;35.70
31129;DHT22;17777;48.770;8.944;2022-08-11T03:04:35;21.40;35.90
31129;DHT22;17777;48.770;8.944;2022-08-11T03:07:40;21.30;36.30
31129;DHT22;17777;48.770;8.944;2022-08-11T03:10:52;21.30;36.60
31129;DHT22;17777;48.770;8.944;2022-08-11T03:14:08;21.30;35.90
31129;DHT22;17777;48.770;8.944;2022-08-11T03:20:29;21.30;36.80
31129;DHT22;17777;48.770;8.944;2022-08-11T03:23:28;21.20;37.60
31129;DHT22;17777;48.770;8.944;2022-08-11T03:32:08;21.10;36.20
31129;DHT22;17777;48.770;8.944;2022-08-11T03:34:44;21.10;36.90
31129;DHT22;17777;48.770;8.944;2022-08-11T03:37:33;21.00;36.40
31129;DHT22;17777;48.770;8.944;2022-08-11T03:40:40;21.00;37.90
31129;DHT22;17777;48.770;8.944;2022-08-11T03:49:24;20.90;38.20
31129;DHT22;17777;48.770;8.944;2022-08-11T03:55:14;20.90;37.40
31129;DHT22;17777;48.770;8.944;2022-08-11T04:13:34;20.70;38.10
31129;DHT22;17777;48.770;8.944;2022-08-11T04:16:42;20.60;38.90
31129;DHT22;17777;48.770;8.944;2022-08-11T04:33:56;20.50;38.50
31129;DHT22;17777;48.770;8.944;2022-08-11T04:39:54;20.50;38.50
31129;DHT22;17777;48.770;8.944;2022-08-11T04:42:46;20.40;38.60
31129;DHT22;17777;48.770;8.944;2022-08-11T05:01:41;20.30;39.20
31129;DHT22;17777;48.770;8.944;2022-08-11T05:04:58;20.30;38.40
31129;DHT22;17777;48.770;8.944;2022-08-11T05:08:14;20.30;39.70
31129;DHT22;17777;48.770;8.944;2022-08-11T05:16:58;20.40;39.30
31129;DHT22;17777;48.770;8.944;2022-08-11T05:19:47;20.40;38.80
31129;DHT22;17777;48.770;8.944;2022-08-11T05:22:33;20.40;38.60
31129;DHT22;17777;48.770;8.944;2022-08-11T05:25:30;20.40;38.80
31129;DHT22;17777;48.770;8.944;2022-08-11T05:28:29;20.50;39.60
31129;DHT22;17777;48.770;8.944;2022-08-11T05:31:25;20.50;38.90
31129;DHT22;17777;48.770;8.944;2022-08-11T05:34:26;20.60;39.00
31129;DHT22;17777;48.770;8.944;2022-08-11T05:37:30;20.60;39.20
31129;DHT22;17777;48.770;8.944;2022-08-11T05:43:00;20.70;39.00
31129;DHT22;17777;48.770;8.944;2022-08-11T05:45:57;20.70;39.60
31129;DHT22;17777;48.770;8.944;2022-08-11T05:48:44;20.80;39.80
31129;DHT22;17777;48.770;8.944;2022-08-11T05:51:42;20.90;39.20
31129;DHT22;17777;48.770;8.944;2022-08-11T05:54:27;20.90;39.80
31129;DHT22;17777;48.770;8.944;2022-08-11T05:57:28;21.00;39.30
31129;DHT22;17777;48.770;8.944;2022-08-11T06:00:07;21.00;40.20
31129;DHT22;17777;48.770;8.944;2022-08-11T06:02:44;21.10;39.90
31129;DHT22;17777;48.770;8.944;2022-08-11T06:05:13;21.10;39.50
31129;DHT22;17777;48.770;8.944;2022-08-11T06:07:40;21.20;39.20
31129;DHT22;17777;48.770;8.944;2022-08-11T06:10:08;21.20;39.10
31129;DHT22;17777;48.770;8.944;2022-08-11T06:12:36;21.30;39.40
31129;DHT22;17777;48.770;8.944;2022-08-11T06:15:06;21.40;39.50
31129;DHT22;17777;48.770;8.944;2022-08-11T06:17:43;21.50;39.60
31129;DHT22;17777;48.770;8.944;2022-08-11T06:20:13;21.50;40.00
31129;DHT22;17777;48.770;8.944;2022-08-11T06:22:43;21.60;39.50
31129;DHT22;17777;48.770;8.944;2022-08-11T06:25:11;21.70;39.50
31129;DHT22;17777;48.770;8.944;2022-08-11T06:27:40;21.80;39.50
31129;DHT22;17777;48.770;8.944;2022-08-11T06:30:07;21.90;39.40
31129;DHT22;17777;48.770;8.944;2022-08-11T06:32:44;22.00;39.50
31129;DHT22;17777;48.770;8.944;2022-08-11T06:41:23;22.30;39.30
31129;DHT22;17777;48.770;8.944;2022-08-11T06:44:06;22.40;39.30
31129;DHT22;17777;48.770;8.944;2022-08-11T06:46:45;22.50;39.30
31129;DHT22;17777;48.770;8.944;2022-08-11T06:49:14;22.60;38.90
31129;DHT22;17777;48.770;8.944;2022-08-11T06:52:12;22.80;39.10
31129;DHT22;17777;48.770;8.944;2022-08-11T06:54:48;22.80;39.20
31129;DHT22;17777;48.770;8.944;2022-08-11T06:57:19;22.90;39.40
31129;DHT22;17777;48.770;8.944;2022-08-11T07:00:04;23.10;39.00
31129;DHT22;17777;48.770;8.944;2022-08-11T07:03:07;23.20;39.30
31129;DHT22;17777;48.770;8.944;2022-08-11T07:05:53;23.30;39.10
31129;DHT22;17777;48.770;8.944;2022-08-11T07:14:51;23.70;39.10
31129;DHT22;17777;48.770;8.944;2022-08-11T07:17:43;23.90;38.70
31129;DHT22;17777;48.770;8.944;2022-08-11T07:20:14;24.00;38.80
31129;DHT22;17777;48.770;8.944;2022-08-11T07:23:01;24.10;38.50
31129;DHT22;17777;48.770;8.944;2022-08-11T07:25:50;24.20;38.40
31129;DHT22;17777;48.770;8.944;2022-08-11T07:28:41;24.40;38.30
31129;DHT22;17777;48.770;8.944;2022-08-11T07:31:45;24.50;38.20
31129;DHT22;17777;48.770;8.944;2022-08-11T07:34:32;24.60;38.10
31129;DHT22;17777;48.770;8.944;2022-08-11T07:37:03;24.80;37.90
31129;DHT22;17777;48.770;8.944;2022-08-11T07:39:35;24.90;37.80
31129;DHT22;17777;48.770;8.944;2022-08-11T07:42:09;25.00;37.70
31129;DHT22;17777;48.770;8.944;2022-08-11T07:44:39;25.10;37.60
31129;DHT22;17777;48.770;8.944;2022-08-11T07:47:34;25.20;37.50
31129;DHT22;17777;48.770;8.944;2022-08-11T07:50:20;25.30;37.40
31129;DHT22;17777;48.770;8.944;2022-08-11T07:53:04;25.40;37.40
31129;DHT22;17777;48.770;8.944;2022-08-11T07:55:30;25.50;37.20
31129;DHT22;17777;48.770;8.944;2022-08-11T07:57:59;25.70;37.10
31129;DHT22;17777;48.770;8.944;2022-08-11T08:00:52;25.70;36.90
31129;DHT22;17777;48.770;8.944;2022-08-11T08:03:38;25.90;36.70
31129;DHT22;17777;48.770;8.944;2022-08-11T08:06:25;26.00;36.40
31129;DHT22;17777;48.770;8.944;2022-08-11T08:09:11;26.10;35.90
31129;DHT22;17777;48.770;8.944;2022-08-11T08:11:56;26.30;36.00
31129;DHT22;17777;48.770;8.944;2022-08-11T08:14:43;26.40;36.10
31129;DHT22;17777;48.770;8.944;2022-08-11T08:17:29;26.50;36.10
31129;DHT22;17777;48.770;8.944;2022-08-11T08:20:17;26.70;35.90
31129;DHT22;17777;48.770;8.944;2022-08-11T08:22:53;26.80;35.70
31129;DHT22;17777;48.770;8.944;2022-08-11T08:25:28;26.90;35.50
31129;DHT22;17777;48.770;8.944;2022-08-11T08:27:56;27.10;34.90
31129;DHT22;17777;48.770;8.944;2022-08-11T08:30:25;27.20;34.60
31129;DHT22;17777;48.770;8.944;2022-08-11T08:35:43;27.40;34.10
31129;DHT22;17777;48.770;8.944;2022-08-11T08:38:11;27.60;34.20
31129;DHT22;17777;48.770;8.944;2022-08-11T08:40:42;27.70;33.90
31129;DHT22;17777;48.770;8.944;2022-08-11T08:43:11;27.80;33.10
31129;DHT22;17777;48.770;8.944;2022-08-11T08:45:42;27.90;33.30
31129;DHT22;17777;48.770;8.944;2022-08-11T08:48:13;27.90;32.40
31129;DHT22;17777;48.770;8.944;2022-08-11T08:50:52;28.00;32.20
31129;DHT22;17777;48.770;8.944;2022-08-11T08:53:45;28.10;31.80
31129;DHT22;17777;48.770;8.944;2022-08-11T08:56:13;28.20;31.80
31129;DHT22;17777;48.770;8.944;2022-08-11T08:58:41;28.30;31.20
31129;DHT22;17777;48.770;8.944;2022-08-11T09:01:10;28.40;31.50
31129;DHT22;17777;48.770;8.944;2022-08-11T09:03:37;28.50;32.20
31129;DHT22;17777;48.770;8.944;2022-08-11T09:06:04;28.50;31.00
31129;DHT22;17777;48.770;8.944;2022-08-11T09:08:31;28.60;31.20
31129;DHT22;17777;48.770;8.944;2022-08-11T09:10:58;28.70;31.10
31129;DHT22;17777;48.770;8.944;2022-08-11T09:13:45;28.80;31.30
31129;DHT22;17777;48.770;8.944;2022-08-11T09:16:12;28.90;30.50
31129;DHT22;17777;48.770;8.944;2022-08-11T09:18:39;29.00;30.70
31129;DHT22;17777;48.770;8.944;2022-08-11T09:21:13;29.10;30.40
31129;DHT22;17777;48.770;8.944;2022-08-11T09:23:41;29.10;30.60
31129;DHT22;17777;48.770;8.944;2022-08-11T09:26:27;29.20;30.40
31129;DHT22;17777;48.770;8.944;2022-08-11T09:29:12;29.40;30.00
31129;DHT22;17777;48.770;8.944;2022-08-11T09:31:39;29.50;30.00
31129;DHT22;17777;48.770;8.944;2022-08-11T09:34:10;29.50;29.80
31129;DHT22;17777;48.770;8.944;2022-08-11T09:36:38;29.60;29.70
31129;DHT22;17777;48.770;8.944;2022-08-11T09:39:23;29.70;29.70
31129;DHT22;17777;48.770;8.944;2022-08-11T09:42:08;29.80;29.40
31129;DHT22;17777;48.770;8.944;2022-08-11T09:44:36;29.90;28.90
31129;DHT22;17777;48.770;8.944;2022-08-11T09:49:56;30.00;27.90
31129;DHT22;17777;48.770;8.944;2022-08-11T09:52:24;30.10;28.60
31129;DHT22;17777;48.770;8.944;2022-08-11T09:54:51;30.10;28.40
31129;DHT22;17777;48.770;8.944;2022-08-11T09:57:19;30.10;28.00
31129;DHT22;17777;48.770;8.944;2022-08-11T10:00:07;30.20;28.00
31129;DHT22;17777;48.770;8.944;2022-08-11T10:02:41;30.30;28.00
31129;DHT22;17777;48.770;8.944;2022-08-11T10:05:11;30.40;27.40
31129;DHT22;17777;48.770;8.944;2022-08-11T10:08:01;30.40;27.50
31129;DHT22;17777;48.770;8.944;2022-08-11T10:10:28;30.50;27.30
31129;DHT22;17777;48.770;8.944;2022-08-11T10:13:03;30.70;27.40
31129;DHT22;17777;48.770;8.944;2022-08-11T10:15:31;30.80;27.10
31129;DHT22;17777;48.770;8.944;2022-08-11T10:18:13;30.90;27.70
31129;DHT22;17777;48.770;8.944;2022-08-11T10:21:01;31.10;26.90
31129;DHT22;17777;48.770;8.944;2022-08-11T10:23:33;31.30;27.60
31129;DHT22;17777;48.770;8.944;2022-08-11T10:26:19;31.50;26.30
31129;DHT22;17777;48.770;8.944;2022-08-11T10:29:05;31.70;27.40
31129;DHT22;17777;48.770;8.944;2022-08-11T10:31:55;31.90;27.60
31129;DHT22;17777;48.770;8.944;2022-08-11T10:34:41;32.10;26.60
31129;DHT22;17777;48.770;8.944;2022-08-11T10:37:09;32.40;27.00
31129;DHT22;17777;48.770;8.944;2022-08-11T10:39:37;32.50;26.10
31129;DHT22;17777;48.770;8.944;2022-08-11T10:42:04;32.60;25.70
31129;DHT22;17777;48.770;8.944;2022-08-11T10:44:53;32.80;25.40
31129;DHT22;17777;48.770;8.944;2022-08-11T10:47:20;32.90;25.40
31129;DHT22;17777;48.770;8.944;2022-08-11T10:50:07;33.00;25.90
31129;DHT22;17777;48.770;8.944;2022-08-11T10:52:53;33.10;25.70
31129;DHT22;17777;48.770;8.944;2022-08-11T10:55:41;33.20;24.70
31129;DHT22;17777;48.770;8.944;2022-08-11T10:58:27;33.20;24.60
31129;DHT22;17777;48.770;8.944;2022-08-11T11:01:24;33.30;24.50
31129;DHT22;17777;48.770;8.944;2022-08-11T11:03:57;33.30;23.20
31129;DHT22;17777;48.770;8.944;2022-08-11T11:06:59;33.30;23.90
31129;DHT22;17777;48.770;8.944;2022-08-11T11:12:08;33.30;24.20
31129;DHT22;17777;48.770;8.944;2022-08-11T11:14:56;33.20;22.80
31129;DHT22;17777;48.770;8.944;2022-08-11T11:17:48;33.20;23.50
31129;DHT22;17777;48.770;8.944;2022-08-11T11:23:07;33.00;23.60
31129;DHT22;17777;48.770;8.944;2022-08-11T11:31:51;32.90;23.30
31129;DHT22;17777;48.770;8.944;2022-08-11T11:37:31;32.80;22.90
31129;DHT22;17777;48.770;8.944;2022-08-11T11:40:00;32.80;23.40
31129;DHT22;17777;48.770;8.944;2022-08-11T11:42:30;32.70;23.30
31129;DHT22;17777;48.770;8.944;2022-08-11T11:44:57;32.60;23.20
31129;DHT22;17777;48.770;8.944;2022-08-11T11:47:24;32.60;23.30
31129;DHT22;17777;48.770;8.944;2022-08-11T11:49:50;32.60;23.30
31129;DHT22;17777;48.770;8.944;2022-08-11T11:52:19;32.60;23.60
31129;DHT22;17777;48.770;8.944;2022-08-11T11:54:47;32.60;23.70
31129;DHT22;17777;48.770;8.944;2022-08-11T11:57:19;32.60;23.80
31129;DHT22;17777;48.770;8.944;2022-08-11T12:00:07;32.60;23.30
31129;DHT22;17777;48.770;8.944;2022-08-11T12:02:58;32.60;23.80
31129;DHT22;17777;48.770;8.944;2022-08-11T12:05:27;32.60;23.90
31129;DHT22;17777;48.770;8.944;2022-08-11T12:07:54;32.70;23.80
31129;DHT22;17777;48.770;8.944;2022-08-11T12:10:59;32.80;23.70
31129;DHT22;17777;48.770;8.944;2022-08-11T12:13:47;32.80;23.20
31129;DHT22;17777;48.770;8.944;2022-08-11T12:16:17;32.90;23.50
31129;DHT22;17777;48.770;8.944;2022-08-11T12:18:46;32.90;23.80
31129;DHT22;17777;48.770;8.944;2022-08-11T12:21:15;32.90;23.30
31129;DHT22;17777;48.770;8.944;2022-08-11T12:23:42;32.90;23.80
31129;DHT22;17777;48.770;8.944;2022-08-11T12:26:29;33.00;23.30
31129;DHT22;17777;48.770;8.944;2022-08-11T12:29:24;33.00;22.90
31129;DHT22;17777;48.770;8.944;2022-08-11T12:31:54;33.00;22.80
31129;DHT22;17777;48.770;8.944;2022-08-11T12:34:20;33.00;23.10
31129;DHT22;17777;48.770;8.944;2022-08-11T12:36:59;33.00;23.00
31129;DHT22;17777;48.770;8.944;2022-08-11T12:39:38;33.00;23.20
31129;DHT22;17777;48.770;8.944;2022-08-11T12:42:47;33.00;22.10
31129;DHT22;17777;48.770;8.944;2022-08-11T12:45:32;33.00;22.80
31129;DHT22;17777;48.770;8.944;2022-08-11T12:48:08;33.00;22.70
31129;DHT22;17777;48.770;8.944;2022-08-11T12:51:06;33.00;22.70
31129;DHT22;17777;48.770;8.944;2022-08-11T12:54:09;33.00;22.10
31129;DHT22;17777;48.770;8.944;2022-08-11T12:56:47;33.00;22.40
31129;DHT22;17777;48.770;8.944;2022-08-11T12:59:34;33.00;22.10
31129;DHT22;17777;48.770;8.944;2022-08-11T13:02:21;33.10;22.50
31129;DHT22;17777;48.770;8.944;2022-08-11T13:05:11;33.10;22.40
31129;DHT22;17777;48.770;8.944;2022-08-11T13:07:43;33.10;22.10
31129;DHT22;17777;48.770;8.944;2022-08-11T13:10:12;33.20;22.60
31129;DHT22;17777;48.770;8.944;2022-08-11T13:12:41;33.10;22.30
31129;DHT22;17777;48.770;8.944;2022-08-11T13:15:19;33.20;22.60
31129;DHT22;17777;48.770;8.944;2022-08-11T13:17:47;33.20;22.80
31129;DHT22;17777;48.770;8.944;2022-08-11T13:20:17;33.30;22.50
31129;DHT22;17777;48.770;8.944;2022-08-11T13:22:50;33.40;22.30
31129;DHT22;17777;48.770;8.944;2022-08-11T13:25:19;33.50;22.20
31129;DHT22;17777;48.770;8.944;2022-08-11T13:27:49;33.50;22.30
31129;DHT22;17777;48.770;8.944;2022-08-11T13:30:16;33.60;22.50
31129;DHT22;17777;48.770;8.944;2022-08-11T13:33:03;33.70;22.00
31129;DHT22;17777;48.770;8.944;2022-08-11T13:35:32;33.90;22.00
31129;DHT22;17777;48.770;8.944;2022-08-11T13:38:03;33.90;21.20
31129;DHT22;17777;48.770;8.944;2022-08-11T13:40:30;34.00;20.90
31129;DHT22;17777;48.770;8.944;2022-08-11T13:42:57;34.10;21.80
31129;DHT22;17777;48.770;8.944;2022-08-11T13:45:24;34.20;21.50
31129;DHT22;17777;48.770;8.944;2022-08-11T13:47:55;34.20;21.40
31129;DHT22;17777;48.770;8.944;2022-08-11T13:50:23;34.30;21.00
31129;DHT22;17777;48.770;8.944;2022-08-11T13:53:11;34.30;20.90
31129;DHT22;17777;48.770;8.944;2022-08-11T13:55:41;34.30;20.90
31129;DHT22;17777;48.770;8.944;2022-08-11T13:58:09;34.40;20.40
31129;DHT22;17777;48.770;8.944;2022-08-11T14:00:36;34.40;20.90
31129;DHT22;17777;48.770;8.944;2022-08-11T14:03:05;34.50;21.30
31129;DHT22;17777;48.770;8.944;2022-08-11T14:05:39;34.50;21.00
31129;DHT22;17777;48.770;8.944;2022-08-11T14:08:10;34.50;20.90
31129;DHT22;17777;48.770;8.944;2022-08-11T14:10:38;34.60;21.40
31129;DHT22;17777;48.770;8.944;2022-08-11T14:13:15;34.60;21.70
31129;DHT22;17777;48.770;8.944;2022-08-11T14:16:05;34.60;20.40
31129;DHT22;17777;48.770;8.944;2022-08-11T14:18:33;34.60;20.70
31129;DHT22;17777;48.770;8.944;2022-08-11T14:21:02;34.70;19.30
31129;DHT22;17777;48.770;8.944;2022-08-11T14:23:53;34.70;20.50
31129;DHT22;17777;48.770;8.944;2022-08-11T14:26:24;34.70;20.40
31129;DHT22;17777;48.770;8.944;2022-08-11T14:28:56;34.70;20.20
31129;DHT22;17777;48.770;8.944;2022-08-11T14:31:28;34.60;20.50
31129;DHT22;17777;48.770;8.944;2022-08-11T14:33:56;34.60;20.40
31129;DHT22;17777;48.770;8.944;2022-08-11T14:36:25;34.60;20.40
31129;DHT22;17777;48.770;8.944;2022-08-11T14:38:54;34.60;20.20
31129;DHT22;17777;48.770;8.944;2022-08-11T14:41:22;34.60;20.50
31129;DHT22;17777;48.770;8.944;2022-08-11T14:44:08;34.60;20.60
31129;DHT22;17777;48.770;8.944;2022-08-11T14:46:54;34.60;20.80
31129;DHT22;17777;48.770;8.944;2022-08-11T14:49:32;34.60;20.70
31129;DHT22;17777;48.770;8.944;2022-08-11T14:52:01;34.60;19.90
31129;DHT22;17777;48.770;8.944;2022-08-11T14:54:41;34.60;20.10
31129;DHT22;17777;48.770;8.944;2022-08-11T14:57:28;34.60;19.90
31129;DHT22;17777;48.770;8.944;2022-08-11T14:59:59;34.60;20.00
31129;DHT22;17777;48.770;8.944;2022-08-11T15:02:28;34.60;20.30
31129;DHT22;17777;48.770;8.944;2022-08-11T15:05:13;34.60;20.20
31129;DHT22;17777;48.770;8.944;2022-08-11T15:07:40;34.50;19.90
31129;DHT22;17777;48.770;8.944;2022-08-11T15:10:08;34.50;20.10
31129;DHT22;17777;48.770;8.944;2022-08-11T15:12:37;34.50;19.70
31129;DHT22;17777;48.770;8.944;2022-08-11T15:15:07;34.50;19.70
31129;DHT22;17777;48.770;8.944;2022-08-11T15:17:55;34.50;19.90
31129;DHT22;17777;48.770;8.944;2022-08-11T15:20:23;34.40;19.90
31129;DHT22;17777;48.770;8.944;2022-08-11T15:23:08;34.40;19.50
31129;DHT22;17777;48.770;8.944;2022-08-11T15:25:57;34.40;19.70
31129;DHT22;17777;48.770;8.944;2022-08-11T15:28:32;34.30;19.40
31129;DHT22;17777;48.770;8.944;2022-08-11T15:31:21;34.30;19.30
31129;DHT22;17777;48.770;8.944;2022-08-11T15:34:03;34.30;19.40
31129;DHT22;17777;48.770;8.944;2022-08-11T15:36:50;34.30;19.40
31129;DHT22;17777;48.770;8.944;2022-08-11T15:39:47;34.20;19.40
31129;DHT22;17777;48.770;8.944;2022-08-11T15:42:46;34.20;19.50
31129;DHT22;17777;48.770;8.944;2022-08-11T15:45:36;34.20;19.80
31129;DHT22;17777;48.770;8.944;2022-08-11T15:48:47;34.20;19.90
31129;DHT22;17777;48.770;8.944;2022-08-11T15:51:29;34.20;19.50
31129;DHT22;17777;48.770;8.944;2022-08-11T15:54:04;34.20;19.70
31129;DHT22;17777;48.770;8.944;2022-08-11T15:56:35;34.10;19.70
31129;DHT22;17777;48.770;8.944;2022-08-11T15:59:04;34.10;19.50
31129;DHT22;17777;48.770;8.944;2022-08-11T16:01:50;34.10;19.40
31129;DHT22;17777;48.770;8.944;2022-08-11T16:04:37;34.10;19.60
31129;DHT22;17777;48.770;8.944;2022-08-11T16:07:09;34.00;19.70
31129;DHT22;17777;48.770;8.944;2022-08-11T16:09:41;34.00;19.60
31129;DHT22;17777;48.770;8.944;2022-08-11T16:12:12;34.00;19.70
31129;DHT22;17777;48.770;8.944;2022-08-11T16:14:43;34.00;19.60
31129;DHT22;17777;48.770;8.944;2022-08-11T16:17:32;34.00;19.20
31129;DHT22;17777;48.770;8.944;2022-08-11T16:20:01;34.00;19.60
31129;DHT22;17777;48.770;8.944;2022-08-11T16:22:30;34.00;19.60
31129;DHT22;17777;48.770;8.944;2022-08-11T16:25:08;34.00;19.50
31129;DHT22;17777;48.770;8.944;2022-08-11T16:27:41;34.00;19.50
31129;DHT22;17777;48.770;8.944;2022-08-11T16:30:10;33.90;19.40
31129;DHT22;17777;48.770;8.944;2022-08-11T16:32:39;33.90;19.60
31129;DHT22;17777;48.770;8.944;2022-08-11T16:35:19;33.90;19.70
31129;DHT22;17777;48.770;8.944;2022-08-11T16:38:06;33.90;19.90
31129;DHT22;17777;48.770;8.944;2022-08-11T16:41:13;33.90;19.70
31129;DHT22;17777;48.770;8.944;2022-08-11T16:43:44;33.90;19.80
31129;DHT22;17777;48.770;8.944;2022-08-11T16:46:30;33.80;19.80
31129;DHT22;17777;48.770;8.944;2022-08-11T16:49:17;33.90;19.70
31129;DHT22;17777;48.770;8.944;2022-08-11T16:51:45;33.80;19.60
31129;DHT22;17777;48.770;8.944;2022-08-11T16:54:12;33.80;19.70
31129;DHT22;17777;48.770;8.944;2022-08-11T16:56:44;33.70;19.70
31129;DHT22;17777;48.770;8.944;2022-08-11T16:59:30;33.70;19.60
31129;DHT22;17777;48.770;8.944;2022-08-11T17:02:09;33.70;19.70
31129;DHT22;17777;48.770;8.944;2022-08-11T17:07:40;33.70;19.90
31129;DHT22;17777;48.770;8.944;2022-08-11T17:10:32;33.60;19.80
31129;DHT22;17777;48.770;8.944;2022-08-11T17:13:25;33.60;19.70
31129;DHT22;17777;48.770;8.944;2022-08-11T17:16:30;33.50;19.80
31129;DHT22;17777;48.770;8.944;2022-08-11T17:19:07;33.50;20.00
31129;DHT22;17777;48.770;8.944;2022-08-11T17:21:47;33.50;19.80
31129;DHT22;17777;48.770;8.944;2022-08-11T17:24:35;33.50;19.80
31129;DHT22;17777;48.770;8.944;2022-08-11T17:27:04;33.50;19.90
31129;DHT22;17777;48.770;8.944;2022-08-11T17:29:49;33.40;19.90
31129;DHT22;17777;48.770;8.944;2022-08-11T17:32:24;33.40;19.80
31129;DHT22;17777;48.770;8.944;2022-08-11T17:35:13;33.30;19.40
31129;DHT22;17777;48.770;8.944;2022-08-11T17:40:33;33.30;19.70
31129;DHT22;17777;48.770;8.944;2022-08-11T17:43:02;33.30;19.80
31129;DHT22;17777;48.770;8.944;2022-08-11T17:45:47;33.20;19.70
31129;DHT22;17777;48.770;8.944;2022-08-11T17:48:41;33.20;19.90
31129;DHT22;17777;48.770;8.944;2022-08-11T17:51:11;33.10;19.90
31129;DHT22;17777;48.770;8.944;2022-08-11T17:53:59;33.10;20.10
31129;DHT22;17777;48.770;8.944;2022-08-11T17:56:44;33.10;20.10
31129;DHT22;17777;48.770;8.944;2022-08-11T17:59:30;33.10;20.10
31129;DHT22;17777;48.770;8.944;2022-08-11T18:02:24;33.00;20.20
31129;DHT22;17777;48.770;8.944;2022-08-11T18:05:14;33.00;20.10
31129;DHT22;17777;48.770;8.944;2022-08-11T18:07:43;33.00;20.20
31129;DHT22;17777;48.770;8.944;2022-08-11T18:10:33;32.90;20.10
31129;DHT22;17777;48.770;8.944;2022-08-11T18:13:26;32.80;20.00
31129;DHT22;17777;48.770;8.944;2022-08-11T18:16:13;32.80;20.10
31129;DHT22;17777;48.770;8.944;2022-08-11T18:18:58;32.80;20.30
31129;DHT22;17777;48.770;8.944;2022-08-11T18:21:43;32.70;20.40
31129;DHT22;17777;48.770;8.944;2022-08-11T18:24:45;32.70;20.30
31129;DHT22;17777;48.770;8.944;2022-08-11T18:27:33;32.70;20.30
31129;DHT22;17777;48.770;8.944;2022-08-11T18:30:18;32.60;20.30
31129;DHT22;17777;48.770;8.944;2022-08-11T18:33:04;32.60;20.40
31129;DHT22;17777;48.770;8.944;2022-08-11T18:35:52;32.50;20.40
31129;DHT22;17777;48.770;8.944;2022-08-11T18:38:39;32.50;20.40
31129;DHT22;17777;48.770;8.944;2022-08-11T18:41:26;32.40;20.60
31129;DHT22;17777;48.770;8.944;2022-08-11T18:44:14;32.40;20.60
31129;DHT22;17777;48.770;8.944;2022-08-11T18:47:04;32.30;20.60
31129;DHT22;17777;48.770;8.944;2022-08-11T18:50:00;32.20;20.60
31129;DHT22;17777;48.770;8.944;2022-08-11T18:52:50;32.20;20.80
31129;DHT22;17777;48.770;8.944;2022-08-11T18:55:36;32.20;21.30
31129;DHT22;17777;48.770;8.944;2022-08-11T18:58:28;32.20;21.00
31129;DHT22;17777;48.770;8.944;2022-08-11T19:01:16;32.00;20.90
31129;DHT22;17777;48.770;8.944;2022-08-11T19:04:05;32.00;21.00
31129;DHT22;17777;48.770;8.944;2022-08-11T19:06:54;31.90;21.00
31129;DHT22;17777;48.770;8.944;2022-08-11T19:09:42;31.80;21.40
31129;DHT22;17777;48.770;8.944;2022-08-11T19:12:34;31.70;21.60
31129;DHT22;17777;48.770;8.944;2022-08-11T19:15:22;31.60;22.00
31129;DHT22;17777;48.770;8.944;2022-08-11T19:18:17;31.50;21.70
31129;DHT22;17777;48.770;8.944;2022-08-11T19:21:10;31.40;22.00
31129;DHT22;17777;48.770;8.944;2022-08-11T19:24:07;31.30;21.70
31129;DHT22;17777;48.770;8.944;2022-08-11T19:26:58;31.20;21.90
31129;DHT22;17777;48.770;8.944;2022-08-11T19:29:52;31.10;22.10
31129;DHT22;17777;48.770;8.944;2022-08-11T19:32:38;31.00;22.30
31129;DHT22;17777;48.770;8.944;2022-08-11T19:35:24;30.90;22.40
31129;DHT22;17777;48.770;8.944;2022-08-11T19:38:09;30.80;22.40
31129;DHT22;17777;48.770;8.944;2022-08-11T19:40:54;30.60;22.70
31129;DHT22;17777;48.770;8.944;2022-08-11T19:43:41;30.60;22.80
31129;DHT22;17777;48.770;8.944;2022-08-11T19:46:27;30.50;22.70
31129;DHT22;17777;48.770;8.944;2022-08-11T19:49:13;30.30;22.80
31129;DHT22;17777;48.770;8.944;2022-08-11T19:51:59;30.20;23.00
31129;DHT22;17777;48.770;8.944;2022-08-11T19:54:45;30.10;23.10
31129;DHT22;17777;48.770;8.944;2022-08-11T19:57:30;30.00;23.20
31129;DHT22;17777;48.770;8.944;2022-08-11T20:00:17;29.90;23.20